sensor_id;sensor_type;location;lat;lon;timestamp;pressure;altitude;pressure_sealevel;temperature;humidity
57904;BME280;43720;47.462;19.030;2023-02-02T04:59:48;100061.16;;;3.01;94.59
57904;BME280;43720;47.462;19.030;2023-02-02T05:02:51;100065.47;;;3.01;94.26
57904;BME280;43720;47.462;19.030;2023-02-02T05:06:03;100065.34;;;2.98;94.39
57904;BME280;43720;47.462;19.030;2023-02-02T05:09:06;100055.69;;;2.93;94.54
57904;BME280;43720;47.462;19.030;2023-02-02T05:12:08;100057.41;;;2.93;94.40
57904;BME280;43720;47.462;19.030;2023-02-02T05:15:10;100071.91;;;2.89;94.67
57904;BME280;43720;47.462;19.030;2023-02-02T05:18:12;100067.59;;;2.90;94.55
57904;BME280;43720;47.462;19.030;2023-02-02T05:21:15;100083.06;;;2.88;94.50
57904;BME280;43720;47.462;19.030;2023-02-02T05:24:17;100090.66;;;2.85;95.01
57904;BME280;43720;47.462;19.030;2023-02-02T05:27:20;100101.94;;;2.87;94.70
57904;BME280;43720;47.462;19.030;2023-02-02T05:30:22;100107.41;;;2.74;96.06
57904;BME280;43720;47.462;19.030;2023-02-02T05:33:24;100122.19;;;2.78;95.46
57904;BME280;43720;47.462;19.030;2023-02-02T05:36:26;100132.34;;;2.74;95.04
57904;BME280;43720;47.462;19.030;2023-02-02T05:39:29;100137.47;;;2.72;95.51
57904;BME280;43720;47.462;19.030;2023-02-02T05:42:31;100143.53;;;2.74;94.77
57904;BME280;43720;47.462;19.030;2023-02-02T05:45:33;100134.03;;;2.73;94.31
57904;BME280;43720;47.462;19.030;2023-02-02T05:48:36;100141.59;;;2.89;95.75
57904;BME280;43720;47.462;19.030;2023-02-02T05:51:44;100155.66;;;2.96;95.14
57904;BME280;43720;47.462;19.030;2023-02-02T05:54:47;100160.69;;;3.14;92.00
57904;BME280;43720;47.462;19.030;2023-02-02T05:57:50;100160.69;;;3.14;92.19
57904;BME280;43720;47.462;19.030;2023-02-02T06:00:52;100181.66;;;3.01;92.99
57904;BME280;43720;47.462;19.030;2023-02-02T06:03:57;100180.50;;;2.94;93.50
57904;BME280;43720;47.462;19.030;2023-02-02T06:07:00;100167.69;;;2.96;93.74
57904;BME280;43720;47.462;19.030;2023-02-02T06:10:03;100176.34;;;2.98;93.35
57904;BME280;43720;47.462;19.030;2023-02-02T06:13:05;100166.41;;;3.28;90.51
57904;BME280;43720;47.462;19.030;2023-02-02T06:16:07;100159.22;;;3.21;89.19
57904;BME280;43720;47.462;19.030;2023-02-02T06:19:10;100157.72;;;3.26;90.21
57904;BME280;43720;47.462;19.030;2023-02-02T06:22:13;100151.84;;;3.30;90.54
57904;BME280;43720;47.462;19.030;2023-02-02T06:25:15;100139.66;;;3.26;89.20
57904;BME280;43720;47.462;19.030;2023-02-02T06:28:18;100141.13;;;3.21;89.77
57904;BME280;43720;47.462;19.030;2023-02-02T06:31:20;100133.88;;;3.10;89.43
57904;BME280;43720;47.462;19.030;2023-02-02T06:34:23;100149.53;;;3.15;88.45
57904;BME280;43720;47.462;19.030;2023-02-02T06:37:25;100137.06;;;3.05;89.18
57904;BME280;43720;47.462;19.030;2023-02-02T06:40:31;100138.78;;;3.04;89.55
57904;BME280;43720;47.462;19.030;2023-02-02T06:43:33;100137.59;;;2.96;89.97
57904;BME280;43720;47.462;19.030;2023-02-02T06:46:36;100140.81;;;2.90;89.24
57904;BME280;43720;47.462;19.030;2023-02-02T06:49:38;100143.38;;;2.90;90.24
57904;BME280;43720;47.462;19.030;2023-02-02T06:52:48;100140.81;;;2.90;89.63
57904;BME280;43720;47.462;19.030;2023-02-02T06:55:55;100134.03;;;3.15;88.15
57904;BME280;43720;47.462;19.030;2023-02-02T06:58:58;100141.53;;;3.30;87.07
57904;BME280;43720;47.462;19.030;2023-02-02T07:02:01;100144.28;;;3.34;87.17
57904;BME280;43720;47.462;19.030;2023-02-02T07:05:03;100156.72;;;3.44;87.58
57904;BME280;43720;47.462;19.030;2023-02-02T07:08:06;100145.00;;;3.53;85.52
57904;BME280;43720;47.462;19.030;2023-02-02T07:11:09;100165.69;;;3.32;85.63
57904;BME280;43720;47.462;19.030;2023-02-02T07:14:17;100163.81;;;3.28;85.93
57904;BME280;43720;47.462;19.030;2023-02-02T07:17:19;100168.97;;;3.28;86.09
57904;BME280;43720;47.462;19.030;2023-02-02T07:20:21;100176.88;;;3.31;86.21
57904;BME280;43720;47.462;19.030;2023-02-02T07:23:25;100170.44;;;3.42;85.29
57904;BME280;43720;47.462;19.030;2023-02-02T07:26:27;100180.94;;;3.47;85.14
57904;BME280;43720;47.462;19.030;2023-02-02T07:29:30;100187.13;;;3.50;84.58
57904;BME280;43720;47.462;19.030;2023-02-02T07:32:32;100200.22;;;3.77;85.85
57904;BME280;43720;47.462;19.030;2023-02-02T07:35:34;100216.22;;;3.89;83.57
57904;BME280;43720;47.462;19.030;2023-02-02T07:38:37;100232.56;;;3.88;82.59
57904;BME280;43720;47.462;19.030;2023-02-02T07:41:39;100236.66;;;4.06;82.58
57904;BME280;43720;47.462;19.030;2023-02-02T07:44:47;100233.37;;;4.10;82.24
57904;BME280;43720;47.462;19.030;2023-02-02T07:47:57;100249.75;;;4.10;82.35
57904;BME280;43720;47.462;19.030;2023-02-02T07:51:05;100254.25;;;4.14;82.20
57904;BME280;43720;47.462;19.030;2023-02-02T07:54:08;100251.34;;;4.29;80.80
57904;BME280;43720;47.462;19.030;2023-02-02T07:57:10;100249.44;;;4.48;80.54
57904;BME280;43720;47.462;19.030;2023-02-02T08:00:14;100240.03;;;4.50;79.93
57904;BME280;43720;47.462;19.030;2023-02-02T08:03:17;100242.41;;;4.68;78.99
57904;BME280;43720;47.462;19.030;2023-02-02T08:06:22;100240.31;;;4.81;76.87
57904;BME280;43720;47.462;19.030;2023-02-02T08:09:25;100235.28;;;4.86;75.79
57904;BME280;43720;47.462;19.030;2023-02-02T08:12:27;100238.38;;;5.00;75.50
57904;BME280;43720;47.462;19.030;2023-02-02T08:15:30;100238.44;;;5.03;76.30
57904;BME280;43720;47.462;19.030;2023-02-02T08:18:33;100231.22;;;4.93;75.29
57904;BME280;43720;47.462;19.030;2023-02-02T08:21:36;100231.06;;;4.88;75.83
57904;BME280;43720;47.462;19.030;2023-02-02T08:24:38;100242.91;;;5.07;75.00
57904;BME280;43720;47.462;19.030;2023-02-02T08:27:41;100231.59;;;5.30;76.33
57904;BME280;43720;47.462;19.030;2023-02-02T08:30:45;100236.66;;;5.53;72.55
57904;BME280;43720;47.462;19.030;2023-02-02T08:33:48;100235.50;;;5.70;72.17
57904;BME280;43720;47.462;19.030;2023-02-02T08:36:51;100236.28;;;5.68;70.43
57904;BME280;43720;47.462;19.030;2023-02-02T08:39:53;100223.44;;;5.72;70.26
57904;BME280;43720;47.462;19.030;2023-02-02T08:42:55;100218.56;;;5.81;70.65
57904;BME280;43720;47.462;19.030;2023-02-02T08:45:58;100213.06;;;5.72;69.50
57904;BME280;43720;47.462;19.030;2023-02-02T08:49:09;100202.78;;;5.74;69.16
57904;BME280;43720;47.462;19.030;2023-02-02T08:52:12;100219.00;;;5.68;69.05
57904;BME280;43720;47.462;19.030;2023-02-02T08:55:14;100223.94;;;5.60;69.62
57904;BME280;43720;47.462;19.030;2023-02-02T08:58:17;100205.91;;;5.63;69.41
57904;BME280;43720;47.462;19.030;2023-02-02T09:01:23;100226.50;;;5.59;69.86
57904;BME280;43720;47.462;19.030;2023-02-02T09:04:26;100229.12;;;5.60;69.50
57904;BME280;43720;47.462;19.030;2023-02-02T09:07:28;100259.38;;;5.60;70.07
57904;BME280;43720;47.462;19.030;2023-02-02T09:10:36;100241.06;;;5.55;68.72
57904;BME280;43720;47.462;19.030;2023-02-02T09:13:39;100228.75;;;5.48;70.43
57904;BME280;43720;47.462;19.030;2023-02-02T09:16:42;100240.59;;;5.67;68.92
57904;BME280;43720;47.462;19.030;2023-02-02T09:19:45;100238.62;;;5.87;71.33
57904;BME280;43720;47.462;19.030;2023-02-02T09:22:47;100241.69;;;6.01;68.13
57904;BME280;43720;47.462;19.030;2023-02-02T09:25:49;100236.56;;;6.04;66.64
57904;BME280;43720;47.462;19.030;2023-02-02T09:28:57;100248.81;;;6.08;67.28
57904;BME280;43720;47.462;19.030;2023-02-02T09:31:59;100234.81;;;6.03;64.97
57904;BME280;43720;47.462;19.030;2023-02-02T09:35:02;100236.78;;;5.84;67.30
57904;BME280;43720;47.462;19.030;2023-02-02T09:38:04;100240.00;;;5.76;66.78
57904;BME280;43720;47.462;19.030;2023-02-02T09:41:30;100235.59;;;5.73;66.85
57904;BME280;43720;47.462;19.030;2023-02-02T09:51:17;100241.75;;;5.77;65.22
57904;BME280;43720;47.462;19.030;2023-02-02T09:54:39;100246.22;;;5.81;66.57
57904;BME280;43720;47.462;19.030;2023-02-02T09:57:48;100260.31;;;5.89;66.71
57904;BME280;43720;47.462;19.030;2023-02-02T10:01:08;100243.19;;;5.94;64.90
57904;BME280;43720;47.462;19.030;2023-02-02T10:04:25;100236.75;;;6.10;64.10
57904;BME280;43720;47.462;19.030;2023-02-02T10:07:31;100249.19;;;6.20;62.48
57904;BME280;43720;47.462;19.030;2023-02-02T10:10:40;100245.19;;;6.31;61.98
57904;BME280;43720;47.462;19.030;2023-02-02T10:13:51;100261.75;;;6.35;61.34
57904;BME280;43720;47.462;19.030;2023-02-02T10:16:59;100275.88;;;6.45;62.92
57904;BME280;43720;47.462;19.030;2023-02-02T10:20:19;100266.12;;;6.37;60.97
57904;BME280;43720;47.462;19.030;2023-02-02T10:23:32;100254.63;;;6.29;60.88
57904;BME280;43720;47.462;19.030;2023-02-02T10:26:44;100242.75;;;6.37;60.23
57904;BME280;43720;47.462;19.030;2023-02-02T10:29:55;100245.41;;;6.39;62.08
57904;BME280;43720;47.462;19.030;2023-02-02T10:33:06;100262.38;;;6.58;61.68
57904;BME280;43720;47.462;19.030;2023-02-02T10:36:27;100237.25;;;6.57;60.26
57904;BME280;43720;47.462;19.030;2023-02-02T10:46:39;100217.47;;;6.62;61.55
57904;BME280;43720;47.462;19.030;2023-02-02T10:49:44;100215.06;;;6.68;61.74
57904;BME280;43720;47.462;19.030;2023-02-02T10:52:54;100225.56;;;6.73;62.19
57904;BME280;43720;47.462;19.030;2023-02-02T10:56:06;100217.16;;;6.81;62.00
57904;BME280;43720;47.462;19.030;2023-02-02T10:59:28;100223.59;;;6.96;62.03
57904;BME280;43720;47.462;19.030;2023-02-02T11:02:32;100216.72;;;6.98;60.82
57904;BME280;43720;47.462;19.030;2023-02-02T11:05:35;100230.34;;;6.89;60.55
57904;BME280;43720;47.462;19.030;2023-02-02T11:08:56;100249.50;;;6.93;61.14
57904;BME280;43720;47.462;19.030;2023-02-02T11:12:26;100249.12;;;7.12;60.61
57904;BME280;43720;47.462;19.030;2023-02-02T11:15:30;100239.69;;;7.14;60.72
57904;BME280;43720;47.462;19.030;2023-02-02T11:18:32;100253.00;;;7.28;61.13
57904;BME280;43720;47.462;19.030;2023-02-02T11:21:37;100231.75;;;7.09;59.48
57904;BME280;43720;47.462;19.030;2023-02-02T11:24:44;100262.97;;;7.11;59.74
57904;BME280;43720;47.462;19.030;2023-02-02T11:27:47;100251.47;;;7.01;60.46
57904;BME280;43720;47.462;19.030;2023-02-02T11:30:50;100251.81;;;7.15;61.20
57904;BME280;43720;47.462;19.030;2023-02-02T11:34:26;100251.13;;;7.21;60.80
57904;BME280;43720;47.462;19.030;2023-02-02T11:37:30;100245.94;;;7.22;61.12
57904;BME280;43720;47.462;19.030;2023-02-02T11:40:39;100259.69;;;7.17;60.11
57904;BME280;43720;47.462;19.030;2023-02-02T11:43:57;100256.25;;;7.19;61.42
57904;BME280;43720;47.462;19.030;2023-02-02T11:47:01;100264.16;;;7.22;60.78
57904;BME280;43720;47.462;19.030;2023-02-02T11:50:04;100282.25;;;7.19;61.07
57904;BME280;43720;47.462;19.030;2023-02-02T11:53:41;100283.19;;;7.21;60.78
57904;BME280;43720;47.462;19.030;2023-02-02T11:56:47;100277.94;;;7.20;60.43
57904;BME280;43720;47.462;19.030;2023-02-02T12:00:17;100294.84;;;7.04;60.74
57904;BME280;43720;47.462;19.030;2023-02-02T12:03:36;100285.88;;;6.93;61.44
57904;BME280;43720;47.462;19.030;2023-02-02T12:06:39;100296.34;;;6.94;61.48
57904;BME280;43720;47.462;19.030;2023-02-02T12:09:42;100288.88;;;6.76;61.14
57904;BME280;43720;47.462;19.030;2023-02-02T12:39:29;100267.03;;;6.70;62.58
57904;BME280;43720;47.462;19.030;2023-02-02T12:46:19;100272.72;;;6.86;62.50
57904;BME280;43720;47.462;19.030;2023-02-02T12:53:02;100266.03;;;6.95;62.36
57904;BME280;43720;47.462;19.030;2023-02-02T13:03:10;100270.97;;;6.85;62.05
57904;BME280;43720;47.462;19.030;2023-02-02T13:10:34;100287.31;;;6.81;62.95
57904;BME280;43720;47.462;19.030;2023-02-02T13:13:32;100277.53;;;6.73;63.38
57904;BME280;43720;47.462;19.030;2023-02-02T13:16:41;100285.09;;;6.65;62.37
57904;BME280;43720;47.462;19.030;2023-02-02T13:19:48;100295.03;;;6.78;62.29
57904;BME280;43720;47.462;19.030;2023-02-02T13:23:06;100299.56;;;6.85;62.03
57904;BME280;43720;47.462;19.030;2023-02-02T13:26:27;100292.56;;;6.84;62.01
57904;BME280;43720;47.462;19.030;2023-02-02T13:29:45;100282.28;;;6.87;61.88
57904;BME280;43720;47.462;19.030;2023-02-02T13:32:50;100283.44;;;6.99;61.72
57904;BME280;43720;47.462;19.030;2023-02-02T13:35:59;100293.34;;;7.12;60.82
57904;BME280;43720;47.462;19.030;2023-02-02T13:39:13;100308.94;;;7.12;61.34
57904;BME280;43720;47.462;19.030;2023-02-02T13:42:28;100295.66;;;7.01;61.37
57904;BME280;43720;47.462;19.030;2023-02-02T13:49:14;100302.38;;;6.93;62.94
57904;BME280;43720;47.462;19.030;2023-02-02T13:56:02;100303.59;;;6.76;62.95
57904;BME280;43720;47.462;19.030;2023-02-02T14:02:40;100299.16;;;7.03;62.51
57904;BME280;43720;47.462;19.030;2023-02-02T14:06:01;100298.63;;;7.15;62.02
57904;BME280;43720;47.462;19.030;2023-02-02T14:09:04;100288.84;;;7.05;61.92
57904;BME280;43720;47.462;19.030;2023-02-02T14:12:08;100310.28;;;6.98;62.07
57904;BME280;43720;47.462;19.030;2023-02-02T14:15:12;100303.72;;;7.12;62.42
57904;BME280;43720;47.462;19.030;2023-02-02T14:28:44;100311.28;;;7.03;63.69
57904;BME280;43720;47.462;19.030;2023-02-02T14:31:53;100302.50;;;6.98;62.63
57904;BME280;43720;47.462;19.030;2023-02-02T14:34:59;100316.78;;;6.82;62.62
57904;BME280;43720;47.462;19.030;2023-02-02T14:38:34;100313.31;;;6.81;63.32
57904;BME280;43720;47.462;19.030;2023-02-02T14:41:58;100318.41;;;6.78;62.94
57904;BME280;43720;47.462;19.030;2023-02-02T14:45:39;100312.28;;;6.76;62.85
57904;BME280;43720;47.462;19.030;2023-02-02T14:51:59;100323.41;;;6.72;63.62
57904;BME280;43720;47.462;19.030;2023-02-02T14:55:03;100323.62;;;6.80;62.72
57904;BME280;43720;47.462;19.030;2023-02-02T14:58:08;100331.00;;;6.95;62.95
57904;BME280;43720;47.462;19.030;2023-02-02T15:01:31;100333.50;;;6.92;63.80
57904;BME280;43720;47.462;19.030;2023-02-02T15:04:34;100338.00;;;6.67;64.75
57904;BME280;43720;47.462;19.030;2023-02-02T15:07:50;100346.03;;;6.76;63.36
57904;BME280;43720;47.462;19.030;2023-02-02T15:11:01;100343.28;;;6.70;63.60
57904;BME280;43720;47.462;19.030;2023-02-02T15:14:33;100343.34;;;6.73;64.10
57904;BME280;43720;47.462;19.030;2023-02-02T15:20:46;100360.13;;;6.54;64.88
57904;BME280;43720;47.462;19.030;2023-02-02T15:23:50;100352.81;;;6.43;64.50
57904;BME280;43720;47.462;19.030;2023-02-02T15:26:52;100345.69;;;6.35;64.90
57904;BME280;43720;47.462;19.030;2023-02-02T15:30:02;100360.72;;;6.19;65.72
57904;BME280;43720;47.462;19.030;2023-02-02T15:33:14;100349.56;;;6.21;65.48
57904;BME280;43720;47.462;19.030;2023-02-02T15:36:23;100363.28;;;6.17;66.93
57904;BME280;43720;47.462;19.030;2023-02-02T15:42:40;100380.13;;;6.03;66.72
57904;BME280;43720;47.462;19.030;2023-02-02T15:46:01;100377.53;;;6.03;67.41
57904;BME280;43720;47.462;19.030;2023-02-02T15:52:47;100368.75;;;5.74;68.54
57904;BME280;43720;47.462;19.030;2023-02-02T15:55:51;100388.38;;;5.66;69.49
57904;BME280;43720;47.462;19.030;2023-02-02T15:58:57;100391.72;;;5.63;69.64
57904;BME280;43720;47.462;19.030;2023-02-02T16:05:54;100403.72;;;5.59;70.86
57904;BME280;43720;47.462;19.030;2023-02-02T16:08:57;100407.59;;;5.47;71.04
57904;BME280;43720;47.462;19.030;2023-02-02T16:12:00;100408.50;;;5.49;70.16
57904;BME280;43720;47.462;19.030;2023-02-02T16:15:17;100421.34;;;5.46;70.57
57904;BME280;43720;47.462;19.030;2023-02-02T16:18:20;100412.53;;;5.40;71.00
57904;BME280;43720;47.462;19.030;2023-02-02T16:21:23;100418.19;;;5.29;71.38
57904;BME280;43720;47.462;19.030;2023-02-02T16:24:33;100417.28;;;5.28;71.21
57904;BME280;43720;47.462;19.030;2023-02-02T16:27:40;100436.59;;;5.36;71.09
